Time;durP1;ratioP1;P1;durP2;ratioP2;P2;SDS_P1;SDS_P2;PMS_P1;PMS_P2;Temp;Humidity;BMP_temperature;BMP_pressure;BME280_temperature;BME280_humidity;BME280_pressure;Samples;Min_cycle;Max_cycle;Signal;HPM_P1;HPM_P2
2021/12/24 00:00:43;;;;;;;17.30;9.10;;;;;;;-10.85;59.23;101739.13;1758265;80;20889;-73
2021/12/24 00:03:10;;;;;;;13.35;8.85;;;;;;;-10.83;59.21;101734.14;1758580;80;21451;-73
2021/12/24 00:05:37;;;;;;;20.85;10.08;;;;;;;-10.82;59.20;101734.22;1758249;80;21143;-73
2021/12/24 00:08:04;;;;;;;21.42;10.13;;;;;;;-10.78;59.22;101732.67;1756804;80;20896;-73
2021/12/24 00:10:32;;;;;;;19.82;9.58;;;;;;;-10.77;59.18;101734.42;1745129;81;21467;-73
2021/12/24 00:13:04;;;;;;;18.10;9.35;;;;;;;-10.76;59.09;101738.68;1745321;81;20928;-73
2021/12/24 00:15:51;;;;;;;16.48;8.93;;;;;;;-10.75;59.04;101731.56;1744901;81;20850;-72
2021/12/24 00:18:32;;;;;;;15.58;8.50;;;;;;;-10.77;58.97;101737.82;1744134;81;21672;-73
2021/12/24 00:21:46;;;;;;;18.45;11.70;;;;;;;-10.76;59.07;101729.81;1733396;80;20858;-73
2021/12/24 00:35:05;;;;;;;;;;;;;;;-10.75;59.00;101718.89;1745667;81;21394;-72
2021/12/24 00:36:53;;;;;;;25.00;11.70;;;;;;;-10.80;59.13;101717.43;1744480;81;21292;-72
2021/12/24 00:39:19;;;;;;;31.15;14.13;;;;;;;-10.88;58.97;101708.20;1744456;81;20886;-72
2021/12/24 00:41:47;;;;;;;27.35;13.05;;;;;;;-10.88;59.45;101703.55;1744656;81;20858;-72
2021/12/24 00:44:13;;;;;;;29.95;14.78;;;;;;;-10.83;59.48;101699.95;1744818;81;21510;-71
2021/12/24 00:46:40;;;;;;;24.85;10.68;;;;;;;-10.81;59.41;101693.28;1744743;81;21380;-73
2021/12/24 00:49:07;;;;;;;18.40;11.40;;;;;;;-10.80;59.38;101693.36;1744697;80;20924;-72
2021/12/24 00:57:00;;;;;;;17.55;10.65;;;;;;;-10.80;59.01;101687.03;1744722;81;21780;-73
2021/12/24 00:59:28;;;;;;;22.13;11.70;;;;;;;-10.83;59.02;101680.53;1744732;81;20877;-72
2021/12/24 01:01:54;;;;;;;23.67;12.00;;;;;;;-10.83;58.96;101680.53;1744589;81;20963;-72
2021/12/24 01:04:21;;;;;;;29.27;12.75;;;;;;;-10.87;58.97;101677.39;1744601;81;20987;-72
2021/12/24 01:06:49;;;;;;;30.15;13.70;;;;;;;-10.86;59.01;101671.55;1744582;81;20923;-73
2021/12/24 01:09:16;;;;;;;21.77;11.75;;;;;;;-10.84;59.07;101680.09;1750721;80;21697;-73
2021/12/24 01:11:43;;;;;;;24.60;13.13;;;;;;;-10.83;58.96;101669.14;1757898;81;20940;-73
2021/12/24 01:14:10;;;;;;;31.23;16.75;;;;;;;-10.92;58.76;101662.00;1757828;81;20928;-73
2021/12/24 01:16:45;;;;;;;46.50;23.18;;;;;;;-11.00;59.07;101670.95;1757759;80;21397;-73
2021/12/24 01:19:15;;;;;;;58.92;31.37;;;;;;;-11.03;59.45;101666.13;1757128;81;20955;-73
2021/12/24 01:22:59;;;;;;;66.82;32.08;;;;;;;-11.02;59.69;101657.34;1756934;81;21151;-72
2021/12/24 01:24:19;;;;;;;43.40;21.52;;;;;;;-10.98;59.60;101649.09;1722256;81;20893;-73
2021/12/24 01:37:58;;;;;;;26.68;13.83;;;;;;;-10.85;60.24;101630.20;1758122;81;20971;-74
2021/12/24 01:42:50;;;;;;;27.87;13.98;;;;;;;-11.03;60.77;101623.94;1761125;80;20932;-73
2021/12/24 01:45:29;;;;;;;29.15;13.45;;;;;;;-11.09;61.19;101619.48;1759275;81;20873;-73
2021/12/24 01:48:01;;;;;;;37.23;16.48;;;;;;;-11.15;61.46;101616.68;1758272;81;20876;-74
2021/12/24 01:50:32;;;;;;;27.10;14.25;;;;;;;-11.26;61.53;101615.34;1758455;80;21003;-72
2021/12/24 01:53:02;;;;;;;33.78;17.17;;;;;;;-11.35;61.86;101604.41;1758439;81;20932;-73
2021/12/24 01:55:31;;;;;;;35.83;15.18;;;;;;;-11.41;61.99;101607.91;1758311;81;20857;-75
2021/12/24 01:57:58;;;;;;;30.60;16.73;;;;;;;-11.44;62.21;101598.08;1758053;80;20833;-73
2021/12/24 02:00:31;;;;;;;31.60;16.23;;;;;;;-11.44;62.39;101595.54;1758331;80;21112;-73
2021/12/24 02:02:58;;;;;;;32.73;16.50;;;;;;;-11.41;62.62;101588.08;1758182;81;20857;-73
2021/12/24 02:05:27;;;;;;;30.15;17.23;;;;;;;-11.38;62.69;101580.61;1758021;81;20896;-72
2021/12/24 02:07:53;;;;;;;33.75;15.68;;;;;;;-11.37;62.95;101579.42;1757843;80;20888;-72
2021/12/24 02:10:21;;;;;;;37.35;16.65;;;;;;;-11.30;63.28;101576.36;1747374;80;20900;-75
2021/12/24 02:12:48;;;;;;;37.58;16.62;;;;;;;-11.23;63.35;101568.63;1744593;81;21171;-72
2021/12/24 02:18:04;;;;;;;41.75;19.25;;;;;;;-11.01;64.04;101566.63;1690899;81;20956;-72
2021/12/24 02:28:37;;;;;;;39.42;20.05;;;;;;;-10.64;64.35;101551.72;1747679;81;20944;-71
2021/12/24 02:30:58;;;;;;;45.92;23.85;;;;;;;-10.65;64.66;101543.26;1747374;81;20916;-71
2021/12/24 02:33:26;;;;;;;44.83;21.07;;;;;;;-10.63;64.83;101536.97;1747495;78;20975;-74
2021/12/24 02:35:54;;;;;;;35.33;17.50;;;;;;;-10.61;65.02;101541.70;1748023;78;21014;-73
2021/12/24 02:38:21;;;;;;;42.60;19.32;;;;;;;-10.59;65.08;101545.16;1747931;78;21485;-73
2021/12/24 02:40:49;;;;;;;47.65;20.40;;;;;;;-10.60;65.09;101534.58;1747588;79;20954;-73
2021/12/24 02:43:19;;;;;;;43.40;20.45;;;;;;;-10.58;65.30;101537.15;1748039;78;21007;-73
2021/12/24 02:45:46;;;;;;;42.33;20.08;;;;;;;-10.60;65.46;101529.88;1746118;79;20912;-73
2021/12/24 02:53:57;;;;;;;48.25;20.05;;;;;;;-10.59;65.78;101502.08;1677728;81;20975;-73
2021/12/24 02:56:30;;;;;;;38.25;17.90;;;;;;;-10.56;65.86;101489.55;1745162;81;20968;-73
2021/12/24 02:58:59;;;;;;;45.80;18.77;;;;;;;-10.51;66.09;101486.78;1745323;82;20901;-74
2021/12/24 03:01:33;;;;;;;38.33;18.57;;;;;;;-10.44;66.10;101495.50;1744948;81;20881;-73
2021/12/24 03:04:00;;;;;;;40.93;19.77;;;;;;;-10.40;65.98;101482.14;1745217;82;21148;-74
2021/12/24 03:06:30;;;;;;;30.92;16.97;;;;;;;-10.35;65.99;101487.39;1744931;82;21347;-74
2021/12/24 03:08:57;;;;;;;37.53;16.90;;;;;;;-10.30;65.89;101475.33;1744943;82;20932;-73
2021/12/24 03:11:24;;;;;;;42.33;18.55;;;;;;;-10.30;65.63;101477.02;1744670;80;20932;-73
2021/12/24 03:13:51;;;;;;;38.90;17.73;;;;;;;-10.29;65.90;101468.59;1744704;81;20944;-73
2021/12/24 03:16:19;;;;;;;35.65;17.82;;;;;;;-10.24;65.81;101463.28;1744360;82;21151;-72
2021/12/24 03:18:48;;;;;;;34.45;19.42;;;;;;;-10.20;65.68;101456.25;1744606;82;20884;-72
2021/12/24 03:26:21;;;;;;;39.88;18.85;;;;;;;-10.07;65.43;101455.91;1694857;81;20889;-74
2021/12/24 03:28:48;;;;;;;33.48;18.23;;;;;;;-10.06;65.33;101441.13;1744693;80;21074;-73
2021/12/24 03:31:15;;;;;;;42.00;19.12;;;;;;;-10.03;65.35;101432.36;1744508;81;20890;-73
2021/12/24 03:33:43;;;;;;;33.25;17.10;;;;;;;-10.01;65.20;101434.96;1744843;81;20877;-72
2021/12/24 03:36:11;;;;;;;37.30;17.10;;;;;;;-9.99;65.35;101439.69;1744358;81;20885;-72
2021/12/24 03:38:40;;;;;;;33.45;15.98;;;;;;;-10.00;65.25;101429.09;1744422;81;20920;-73
2021/12/24 03:41:07;;;;;;;35.33;16.55;;;;;;;-10.03;65.04;101422.63;1744466;81;21496;-74
2021/12/24 03:43:34;;;;;;;32.05;15.58;;;;;;;-10.18;65.08;101418.25;1744520;82;20949;-73
2021/12/24 03:46:06;;;;;;;32.05;16.93;;;;;;;-10.33;65.35;101427.06;1744535;81;20956;-74
2021/12/24 03:48:55;;;;;;;31.93;16.48;;;;;;;-10.44;65.56;101421.58;1744272;81;21015;-73
2021/12/24 03:51:29;;;;;;;39.05;17.45;;;;;;;-10.50;65.81;101417.94;1744110;81;20897;-74
2021/12/24 03:56:29;;;;;;;40.05;19.30;;;;;;;-10.58;66.15;101414.23;1636176;85;20972;-74
2021/12/24 03:58:57;;;;;;;34.53;16.95;;;;;;;-10.54;66.45;101403.01;1604890;88;21011;-72
2021/12/24 04:01:41;;;;;;;38.42;16.20;;;;;;;-10.44;66.41;101400.03;1563252;87;21055;-73
2021/12/24 04:04:19;;;;;;;34.58;16.37;;;;;;;-10.35;66.45;101397.39;1632479;87;20917;-75
2021/12/24 04:07:04;;;;;;;29.98;14.28;;;;;;;-10.22;66.52;101398.27;1604682;88;21190;-73
2021/12/24 04:10:23;;;;;;;37.53;17.65;;;;;;;-10.16;66.11;101401.42;1633610;86;20960;-72
2021/12/24 04:12:28;;;;;;;36.25;16.25;;;;;;;-10.16;66.17;101394.67;1580825;88;21019;-73
2021/12/24 04:14:55;;;;;;;41.70;16.82;;;;;;;-10.11;66.30;101390.66;1620139;88;21040;-74
2021/12/24 04:17:23;;;;;;;30.45;17.27;;;;;;;-10.05;66.36;101388.34;1620179;88;21119;-75
2021/12/24 04:25:21;;;;;;;30.90;15.15;;;;;;;-9.98;66.11;101385.63;1620355;88;21040;-74
2021/12/24 04:27:51;;;;;;;53.38;16.87;;;;;;;-9.98;66.09;101379.66;1620157;88;21020;-73
2021/12/24 04:30:23;;;;;;;32.17;14.58;;;;;;;-9.96;66.30;101377.64;1620345;88;20948;-74
2021/12/24 04:32:57;;;;;;;26.07;14.90;;;;;;;-9.94;66.17;101368.41;1630109;86;20948;-74
2021/12/24 04:51:41;;;;;;;30.17;15.08;;;;;;;-10.02;67.03;101345.33;1668449;84;20431;-72
2021/12/24 05:04:50;;;;;;;31.65;15.08;;;;;;;-9.81;66.70;101338.85;1720109;82;20935;-74
2021/12/24 05:07:54;;;;;;;30.43;16.15;;;;;;;-9.86;66.88;101337.84;1719797;82;21444;-74
2021/12/24 05:09:56;;;;;;;34.23;15.20;;;;;;;-9.84;66.94;101342.98;1716305;81;20994;-72
2021/12/24 05:12:24;;;;;;;35.63;17.45;;;;;;;-9.83;66.66;101348.49;1744637;81;21086;-75
2021/12/24 05:14:50;;;;;;;40.35;17.75;;;;;;;-9.87;66.63;101342.47;1744562;81;20893;-73
2021/12/24 05:17:44;;;;;;;42.38;18.07;;;;;;;-9.90;66.61;101351.22;1743087;81;20941;-73
2021/12/24 05:22:52;;;;;;;29.23;15.30;;;;;;;-9.99;66.70;101344.56;1744018;81;21004;-83
2021/12/24 05:25:20;;;;;;;26.48;14.10;;;;;;;-10.01;66.65;101343.64;1744709;80;21191;-84
2021/12/24 05:27:47;;;;;;;30.82;14.95;;;;;;;-10.07;66.58;101330.36;1744921;80;21351;-85
2021/12/24 05:30:25;;;;;;;29.45;15.00;;;;;;;-10.08;66.89;101332.42;1745867;81;20975;-83
2021/12/24 05:32:52;;;;;;;25.75;13.70;;;;;;;-10.05;66.93;101327.47;1745500;80;21008;-84
2021/12/24 05:35:20;;;;;;;32.67;14.28;;;;;;;-10.07;66.82;101330.73;1745212;81;20881;-85
2021/12/24 05:37:47;;;;;;;32.30;14.38;;;;;;;-10.08;67.01;101323.55;1744647;81;21367;-81
2021/12/24 05:40:14;;;;;;;29.52;13.62;;;;;;;-10.06;67.10;101314.32;1744758;81;21417;-84
2021/12/24 05:42:42;;;;;;;26.50;13.68;;;;;;;-10.04;67.26;101304.23;1744727;82;21007;-84
2021/12/24 05:45:10;;;;;;;29.23;14.75;;;;;;;-10.02;67.34;101301.34;1734070;80;20885;-83
2021/12/24 05:47:55;;;;;;;19.65;13.00;;;;;;;-9.95;67.37;101297.35;1745980;81;20987;-82
2021/12/24 05:50:23;;;;;;;20.20;11.48;;;;;;;-9.89;67.27;101293.34;1747534;80;21121;-81
2021/12/24 05:52:57;;;;;;;24.87;12.60;;;;;;;-9.85;67.13;101292.64;1743730;80;20842;-84
2021/12/24 05:55:35;;;;;;;31.05;15.08;;;;;;;-9.85;67.24;101281.61;1744302;81;20889;-83
2021/12/24 05:58:08;;;;;;;28.45;13.70;;;;;;;-9.83;67.37;101279.58;1744226;81;20936;-87
2021/12/24 06:00:38;;;;;;;27.10;12.45;;;;;;;-9.77;67.37;101268.78;1734245;82;21410;-82
2021/12/24 06:03:07;;;;;;;27.13;11.48;;;;;;;-9.75;67.14;101263.77;1744470;81;21154;-81
2021/12/24 06:05:36;;;;;;;37.42;16.57;;;;;;;-9.77;67.10;101260.31;1744772;81;20988;-88
2021/12/24 06:08:04;;;;;;;30.37;14.47;;;;;;;-9.80;67.32;101260.67;1744863;81;20995;-86
2021/12/24 06:10:33;;;;;;;47.08;18.98;;;;;;;-9.73;67.40;101267.22;1746823;80;21137;-86
2021/12/24 06:13:00;;;;;;;40.78;16.50;;;;;;;-9.63;67.43;101266.69;1758073;80;20889;-88
2021/12/24 06:15:27;;;;;;;40.78;19.30;;;;;;;-9.55;67.20;101255.53;1758113;80;21130;-86
2021/12/24 06:17:58;;;;;;;42.98;18.82;;;;;;;-9.48;66.99;101253.64;1758611;81;21110;-86
2021/12/24 06:20:29;;;;;;;51.02;21.42;;;;;;;-9.41;66.98;101256.81;1758615;80;20932;-88
2021/12/24 06:22:56;;;;;;;29.07;17.27;;;;;;;-9.35;66.63;101246.86;1758234;81;20904;-84
2021/12/24 06:25:25;;;;;;;34.25;14.85;;;;;;;-9.28;66.26;101233.53;1757994;81;20881;-85
2021/12/24 06:27:53;;;;;;;37.88;16.02;;;;;;;-9.27;65.85;101231.47;1757792;80;21150;-84
2021/12/24 06:30:22;;;;;;;39.65;18.00;;;;;;;-9.31;65.72;101234.72;1757630;81;21402;-84
2021/12/24 06:32:49;;;;;;;32.73;16.35;;;;;;;-9.33;65.56;101231.27;1758096;80;20904;-85
2021/12/24 06:35:16;;;;;;;35.90;16.15;;;;;;;-9.35;65.37;101240.93;1760215;80;20916;-84
2021/12/24 06:37:44;;;;;;;30.80;15.63;;;;;;;-9.37;65.48;101251.44;1759323;80;20904;-85
2021/12/24 06:40:11;;;;;;;32.28;16.90;;;;;;;-9.34;65.43;101243.49;1758462;80;21765;-85
2021/12/24 06:42:38;;;;;;;28.77;14.23;;;;;;;-9.33;65.01;101226.61;1758213;81;20885;-85
2021/12/24 06:45:05;;;;;;;29.12;14.50;;;;;;;-9.32;64.85;101224.50;1758523;81;21002;-82
2021/12/24 06:47:36;;;;;;;29.55;13.88;;;;;;;-9.33;64.67;101216.45;1754892;81;20869;-84
2021/12/24 06:50:04;;;;;;;38.23;15.32;;;;;;;-9.30;64.50;101213.98;1758502;80;20971;-85
2021/12/24 06:52:33;;;;;;;27.20;13.43;;;;;;;-9.33;64.17;101201.21;1757943;80;21146;-75
2021/12/24 06:54:59;;;;;;;35.40;15.98;;;;;;;-9.38;64.20;101193.45;1758280;81;20857;-75
2021/12/24 06:57:26;;;;;;;34.18;15.13;;;;;;;-9.36;64.35;101190.53;1757961;81;20928;-75
2021/12/24 06:59:54;;;;;;;33.63;15.43;;;;;;;-9.28;64.38;101184.02;1758162;81;20916;-76
2021/12/24 07:02:20;;;;;;;35.35;16.73;;;;;;;-9.17;64.23;101187.73;1758031;81;20896;-78
2021/12/24 07:04:48;;;;;;;37.78;16.42;;;;;;;-9.00;64.41;101186.11;1757916;81;20998;-75
2021/12/24 07:07:15;;;;;;;32.67;16.75;;;;;;;-8.85;63.76;101195.82;1757695;81;20908;-75
2021/12/24 07:09:42;;;;;;;35.98;16.20;;;;;;;-8.82;63.08;101171.78;1757812;81;20947;-76
2021/12/24 07:12:11;;;;;;;29.65;14.05;;;;;;;-8.78;63.50;101166.83;1757680;80;20881;-77
2021/12/24 07:14:40;;;;;;;35.70;16.50;;;;;;;-8.65;63.09;101156.97;1757848;80;21405;-76
2021/12/24 07:17:07;;;;;;;34.33;14.93;;;;;;;-8.59;62.87;101142.74;1758565;81;21085;-76
2021/12/24 07:19:34;;;;;;;28.95;15.05;;;;;;;-8.52;62.66;101144.19;1758184;81;20975;-79
2021/12/24 07:22:01;;;;;;;30.85;15.03;;;;;;;-8.45;62.64;101160.04;1757859;81;20904;-78
2021/12/24 07:24:28;;;;;;;25.90;13.95;;;;;;;-8.31;62.90;101173.08;1758114;81;20888;-77
2021/12/24 07:26:55;;;;;;;36.83;16.75;;;;;;;-8.17;62.40;101176.43;1757958;81;20893;-78
2021/12/24 07:29:22;;;;;;;28.40;15.68;;;;;;;-8.10;62.39;101180.41;1757807;81;21976;-76
2021/12/24 07:31:49;;;;;;;29.35;13.53;;;;;;;-8.04;61.83;101169.13;1758048;81;20876;-79
2021/12/24 07:34:16;;;;;;;28.15;12.00;;;;;;;-8.09;61.65;101145.22;1758045;80;20951;-77
2021/12/24 07:36:43;;;;;;;28.67;12.80;;;;;;;-8.23;61.54;101133.02;1757954;81;20987;-76
2021/12/24 07:39:09;;;;;;;30.32;14.80;;;;;;;-8.32;61.81;101126.86;1758044;81;20857;-76
2021/12/24 07:41:36;;;;;;;31.65;13.13;;;;;;;-8.32;62.28;101134.07;1758267;81;21208;-77
2021/12/24 07:44:05;;;;;;;29.07;12.50;;;;;;;-8.25;62.38;101134.67;1757597;80;20904;-77
2021/12/24 07:46:36;;;;;;;31.77;14.87;;;;;;;-8.13;62.28;101122.68;1757909;81;20888;-77
2021/12/24 07:49:12;;;;;;;27.55;14.28;;;;;;;-8.04;62.45;101133.08;1757729;81;20886;-79
2021/12/24 07:54:15;;;;;;;32.67;15.13;;;;;;;-7.78;62.31;101118.42;1758010;80;21166;-76
2021/12/24 07:56:42;;;;;;;31.97;14.03;;;;;;;-7.66;61.74;101111.46;1757912;81;21385;-78
2021/12/24 07:59:09;;;;;;;27.27;13.35;;;;;;;-7.62;61.57;101106.03;1757845;80;21466;-77
2021/12/24 08:01:36;;;;;;;30.92;15.63;;;;;;;-7.61;61.42;101102.65;1758092;81;21359;-79
2021/12/24 08:04:03;;;;;;;25.57;13.60;;;;;;;-7.68;61.61;101100.80;1758303;80;20948;-80
2021/12/24 08:06:32;;;;;;;29.77;13.50;;;;;;;-7.69;61.71;101097.79;1757993;80;20884;-78
2021/12/24 08:09:00;;;;;;;27.67;13.53;;;;;;;-7.69;61.75;101088.49;1757863;81;21420;-77
2021/12/24 08:11:28;;;;;;;26.20;12.45;;;;;;;-7.73;61.68;101082.46;1754329;80;20936;-79
2021/12/24 08:13:56;;;;;;;26.07;14.15;;;;;;;-7.75;61.92;101080.71;1744665;81;21414;-75
2021/12/24 08:16:23;;;;;;;21.55;12.47;;;;;;;-7.81;61.88;101071.23;1744598;81;20972;-78
2021/12/24 08:18:52;;;;;;;19.57;11.33;;;;;;;-7.86;62.36;101065.62;1744640;81;20981;-77
2021/12/24 08:21:19;;;;;;;24.18;12.07;;;;;;;-7.82;62.57;101045.77;1744779;81;20921;-78
2021/12/24 08:23:47;;;;;;;27.90;12.50;;;;;;;-7.75;62.72;101037.44;1744817;81;20972;-78
2021/12/24 08:26:15;;;;;;;35.65;13.45;;;;;;;-7.67;62.62;101021.89;1744735;80;21065;-79
2021/12/24 08:28:42;;;;;;;20.97;13.13;;;;;;;-7.61;62.47;101019.89;1744711;81;20889;-77
2021/12/24 08:31:09;;;;;;;28.30;12.82;;;;;;;-7.56;62.48;101009.38;1744548;81;21484;-78
2021/12/24 08:33:38;;;;;;;22.98;13.35;;;;;;;-7.48;62.41;100996.81;1744560;81;20846;-77
2021/12/24 08:36:05;;;;;;;26.42;13.43;;;;;;;-7.40;62.60;100989.77;1744528;81;20933;-77
2021/12/24 08:38:33;;;;;;;24.90;10.98;;;;;;;-7.30;62.32;100983.14;1744626;80;20976;-76
2021/12/24 08:41:00;;;;;;;23.45;12.30;;;;;;;-7.33;62.45;100969.94;1744544;81;20916;-79
2021/12/24 08:43:27;;;;;;;35.03;16.82;;;;;;;-7.37;62.89;100959.25;1744695;81;21122;-77
2021/12/24 08:45:54;;;;;;;25.80;12.45;;;;;;;-7.37;63.33;100952.88;1744643;81;20909;-77
2021/12/24 08:48:20;;;;;;;23.75;12.23;;;;;;;-7.39;63.60;100952.41;1744554;80;21363;-77
2021/12/24 08:50:47;;;;;;;30.12;13.60;;;;;;;-7.44;63.83;100934.92;1744491;81;20889;-77
2021/12/24 08:53:14;;;;;;;31.90;14.03;;;;;;;-7.48;64.25;100939.51;1744680;81;20980;-78
2021/12/24 08:55:41;;;;;;;28.90;12.50;;;;;;;-7.54;64.76;100924.53;1744625;80;21108;-80
2021/12/24 08:58:10;;;;;;;23.15;11.22;;;;;;;-7.54;65.31;100930.05;1744631;82;20896;-78
2021/12/24 09:00:38;;;;;;;16.75;9.25;;;;;;;-7.55;65.49;100922.84;1744651;81;21339;-78
2021/12/24 09:03:06;;;;;;;20.00;10.90;;;;;;;-7.49;65.78;100913.19;1744657;80;21409;-82
2021/12/24 09:05:34;;;;;;;21.27;11.18;;;;;;;-7.47;65.99;100910.23;1780732;79;21405;-80
2021/12/24 09:08:01;;;;;;;41.42;12.37;;;;;;;-7.40;66.27;100898.46;1780850;80;21092;-82
2021/12/24 09:10:29;;;;;;;16.70;10.03;;;;;;;-7.36;66.50;100887.50;1780956;79;20868;-80
2021/12/24 09:12:57;;;;;;;19.45;11.10;;;;;;;-7.33;66.68;100876.11;1780805;80;21418;-81
2021/12/24 09:15:29;;;;;;;17.62;8.45;;;;;;;-7.27;66.97;100876.61;1780731;80;20974;-81
2021/12/24 09:17:53;;;;;;;12.35;8.58;;;;;;;-7.20;67.03;100867.84;1780135;80;20919;-81
2021/12/24 09:20:25;;;;;;;14.95;8.30;;;;;;;-7.14;67.29;100860.27;1780882;80;21326;-80
2021/12/24 09:22:51;;;;;;;16.10;9.53;;;;;;;-7.07;67.29;100859.10;1780579;79;20915;-77
2021/12/24 09:25:19;;;;;;;14.13;9.05;;;;;;;-7.00;67.41;100839.23;1780864;80;20923;-81
2021/12/24 09:27:47;;;;;;;16.77;10.18;;;;;;;-6.93;67.38;100838.52;1780904;80;20927;-78
2021/12/24 09:30:13;;;;;;;19.90;9.38;;;;;;;-6.88;67.29;100823.72;1780769;79;20891;-78
2021/12/24 09:32:40;;;;;;;16.97;8.73;;;;;;;-6.81;67.21;100813.19;1780235;80;21542;-79
2021/12/24 09:35:08;;;;;;;17.27;9.73;;;;;;;-6.76;67.36;100803.93;1780773;79;20832;-80
2021/12/24 09:37:37;;;;;;;13.10;7.78;;;;;;;-6.70;67.41;100796.34;1780837;80;21000;-79
2021/12/24 09:40:06;;;;;;;13.58;8.05;;;;;;;-6.64;67.49;100785.38;1780678;80;20955;-79
2021/12/24 09:42:34;;;;;;;17.35;9.18;;;;;;;-6.63;67.56;100774.32;1780668;80;20967;-79
2021/12/24 09:45:04;;;;;;;17.75;10.08;;;;;;;-6.58;67.81;100769.28;1780978;80;21549;-78
2021/12/24 09:47:32;;;;;;;18.45;10.00;;;;;;;-6.52;67.99;100768.09;1780731;80;20963;-78
2021/12/24 09:50:03;;;;;;;17.92;9.18;;;;;;;-6.44;68.15;100757.98;1781059;80;20915;-74
2021/12/24 09:52:31;;;;;;;16.87;10.00;;;;;;;-6.36;68.18;100754.66;1780615;80;20868;-80
2021/12/24 09:55:08;;;;;;;19.40;9.80;;;;;;;-6.32;68.11;100744.08;1781052;80;20915;-79
2021/12/24 09:57:35;;;;;;;19.48;9.43;;;;;;;-6.28;68.38;100733.92;1752748;80;21571;-78
2021/12/24 10:00:10;;;;;;;20.55;11.30;;;;;;;-6.22;68.32;100730.59;1780997;79;20916;-79
2021/12/24 10:02:45;;;;;;;17.82;9.83;;;;;;;-6.17;68.51;100727.66;1780731;80;21366;-79
2021/12/24 10:05:29;;;;;;;17.05;9.70;;;;;;;-6.11;68.69;100724.31;1781138;79;20871;-78
2021/12/24 10:08:21;;;;;;;17.50;9.53;;;;;;;-6.05;68.98;100708.64;1780483;79;20899;-78
2021/12/24 10:10:52;;;;;;;15.95;9.10;;;;;;;-5.93;69.15;100710.83;1719098;82;21600;-82
2021/12/24 10:13:36;;;;;;;18.57;8.95;;;;;;;-5.87;69.42;100700.25;1719598;82;20900;-80
2021/12/24 10:16:12;;;;;;;17.87;10.30;;;;;;;-5.80;69.62;100677.30;1721296;83;20983;-80
2021/12/24 10:18:43;;;;;;;15.95;9.60;;;;;;;-5.73;69.91;100682.91;1719523;83;20975;-80
2021/12/24 10:21:27;;;;;;;16.40;9.60;;;;;;;-5.61;70.13;100671.48;1718965;83;20994;-80
2021/12/24 10:24:07;;;;;;;11.67;6.83;;;;;;;-5.50;70.15;100668.58;1719227;82;21087;-82
2021/12/24 10:26:39;;;;;;;12.47;6.85;;;;;;;-5.43;70.08;100644.77;1718954;82;20912;-81
2021/12/24 10:29:15;;;;;;;12.35;9.23;;;;;;;-5.37;70.24;100642.68;1718932;82;21500;-83
2021/12/24 10:31:48;;;;;;;11.95;7.78;;;;;;;-5.32;70.43;100633.33;1718932;82;20928;-80
2021/12/24 10:34:25;;;;;;;13.05;7.55;;;;;;;-5.29;70.38;100632.08;1719697;83;20978;-80
2021/12/24 10:37:19;;;;;;;17.77;7.97;;;;;;;-5.25;70.66;100621.43;1718945;83;21103;-82
2021/12/24 10:40:00;;;;;;;10.72;6.95;;;;;;;-5.19;70.81;100605.28;1680735;84;20952;-79
2021/12/24 10:42:31;;;;;;;11.50;6.50;;;;;;;-5.19;71.18;100596.34;1681577;85;20936;-80
2021/12/24 10:45:00;;;;;;;11.75;6.95;;;;;;;-5.16;71.39;100576.73;1681244;85;20939;-82
2021/12/24 10:47:29;;;;;;;11.88;7.62;;;;;;;-5.10;71.51;100565.25;1696632;83;20946;-80
2021/12/24 10:51:19;;;;;;;9.80;6.10;;;;;;;-5.03;71.67;100565.69;1719542;83;21611;-81
2021/12/24 10:55:31;;;;;;;10.15;6.70;;;;;;;-4.89;71.67;100548.25;1719544;82;20919;-78
2021/12/24 10:57:59;;;;;;;9.75;6.05;;;;;;;-4.82;71.70;100544.88;1700043;82;20947;-80
2021/12/24 11:00:31;;;;;;;10.98;6.67;;;;;;;-4.76;71.61;100525.68;1719167;83;20998;-78
2021/12/24 11:03:05;;;;;;;11.08;6.80;;;;;;;-4.68;71.66;100521.87;1720147;83;21541;-80
2021/12/24 11:05:41;;;;;;;15.18;6.70;;;;;;;-4.60;71.80;100517.62;1719943;82;20888;-79
2021/12/24 11:08:13;;;;;;;11.43;7.08;;;;;;;-4.53;71.78;100510.36;1720253;83;20856;-81
2021/12/24 11:10:49;;;;;;;9.50;6.42;;;;;;;-4.50;71.91;100504.39;1722085;82;21065;-80
2021/12/24 11:13:19;;;;;;;10.60;6.45;;;;;;;-4.42;72.04;100493.73;1720803;83;20971;-79
2021/12/24 11:15:51;;;;;;;13.83;7.12;;;;;;;-4.30;72.10;100498.81;1720915;83;21159;-80
2021/12/24 11:18:22;;;;;;;10.80;5.58;;;;;;;-4.17;72.04;100469.78;1780403;79;20919;-78
2021/12/24 11:21:04;;;;;;;9.55;6.58;;;;;;;-4.07;71.83;100466.79;1781215;80;21306;-78
2021/12/24 11:23:34;;;;;;;9.43;4.85;;;;;;;-4.04;71.97;100461.65;1781223;80;20876;-81
2021/12/24 11:27:11;;;;;;;6.83;5.10;;;;;;;-3.97;72.21;100440.28;1798735;79;23221;-79
2021/12/24 11:29:39;;;;;;;8.03;5.03;;;;;;;-4.03;72.39;100433.89;1758302;80;21019;-80
2021/12/24 11:32:07;;;;;;;9.85;5.65;;;;;;;-4.01;72.74;100427.05;1758326;81;21122;-80
2021/12/24 11:34:34;;;;;;;8.33;5.58;;;;;;;-3.99;72.76;100409.98;1758259;80;20861;-79
2021/12/24 11:37:01;;;;;;;11.15;5.45;;;;;;;-3.96;73.01;100409.98;1758536;81;21473;-80
2021/12/24 11:39:28;;;;;;;9.85;5.40;;;;;;;-3.94;73.07;100405.27;1696332;83;20907;-80
2021/12/24 11:41:55;;;;;;;9.13;5.87;;;;;;;-3.94;73.24;100399.70;1724780;81;20924;-79
2021/12/24 11:44:22;;;;;;;9.35;5.78;;;;;;;-3.92;73.39;100371.54;1724883;81;21784;-81
2021/12/24 11:46:50;;;;;;;10.20;6.80;;;;;;;-3.88;73.76;100366.83;1724806;83;20876;-79
2021/12/24 11:49:20;;;;;;;10.48;6.22;;;;;;;-3.87;74.01;100360.39;1724725;83;20852;-80
2021/12/24 11:51:49;;;;;;;7.85;5.70;;;;;;;-3.82;74.34;100357.40;1724764;83;21043;-80
2021/12/24 11:54:17;;;;;;;7.85;5.00;;;;;;;-3.78;74.49;100360.38;1724789;83;20987;-81
2021/12/24 11:56:47;;;;;;;6.15;4.87;;;;;;;-3.76;74.47;100365.06;1673497;83;21236;-79
2021/12/24 11:59:15;;;;;;;7.35;5.67;;;;;;;-3.76;74.68;100349.69;1724704;83;20880;-79
2021/12/24 12:01:44;;;;;;;7.87;5.20;;;;;;;-3.75;75.05;100344.12;1724826;83;20895;-81
2021/12/24 12:04:18;;;;;;;11.00;5.22;;;;;;;-3.73;75.31;100348.81;1724869;83;20928;-82
2021/12/24 12:06:45;;;;;;;8.05;5.60;;;;;;;-3.69;75.37;100333.84;1725128;83;20927;-81
2021/12/24 12:09:13;;;;;;;8.08;5.97;;;;;;;-3.66;75.46;100331.69;1724847;83;21397;-82
2021/12/24 12:11:43;;;;;;;8.98;5.78;;;;;;;-3.65;75.57;100316.28;1725040;83;20919;-80
2021/12/24 12:14:27;;;;;;;10.20;5.17;;;;;;;-3.66;75.69;100312.47;1724693;83;21368;-82
2021/12/24 12:16:51;;;;;;;8.30;5.50;;;;;;;-3.65;75.90;100294.94;1723385;83;20860;-82
2021/12/24 12:19:43;;;;;;;5.87;4.50;;;;;;;-3.65;75.99;100294.50;1724888;83;20919;-82
2021/12/24 12:25:00;;;;;;;8.65;4.85;;;;;;;-3.60;75.85;100291.91;1724923;83;28618;-83
2021/12/24 12:27:39;;;;;;;11.75;6.28;;;;;;;-3.61;75.86;100274.41;1709282;82;21365;-81
2021/12/24 12:30:23;;;;;;;10.08;5.80;;;;;;;-3.61;76.01;100261.59;1709232;84;20939;-81
2021/12/24 12:32:55;;;;;;;10.15;5.70;;;;;;;-3.60;76.17;100269.72;1709871;82;21018;-79
2021/12/24 12:35:52;;;;;;;7.08;4.60;;;;;;;-3.57;76.42;100268.40;1709891;83;21350;-78
2021/12/24 12:38:33;;;;;;;6.65;4.70;;;;;;;-3.52;76.40;100263.67;1709220;83;21389;-80
2021/12/24 12:41:34;;;;;;;9.25;5.67;;;;;;;-3.49;76.38;100244.41;1709045;84;20934;-78
2021/12/24 12:44:06;;;;;;;6.45;4.35;;;;;;;-3.45;76.35;100249.94;1708991;83;20912;-79
2021/12/24 12:46:36;;;;;;;10.08;4.60;;;;;;;-3.39;76.33;100245.61;1709054;84;21509;-79
2021/12/24 12:49:05;;;;;;;8.43;5.85;;;;;;;-3.34;76.25;100233.59;1709186;82;21788;-78
2021/12/24 12:51:59;;;;;;;8.68;5.22;;;;;;;-3.27;76.20;100234.38;1708760;84;20939;-79
2021/12/24 12:54:56;;;;;;;9.13;5.37;;;;;;;-3.18;76.21;100236.00;1709095;84;20932;-82
2021/12/24 12:57:27;;;;;;;10.15;5.25;;;;;;;-3.13;76.13;100218.88;1741590;82;20944;-82
2021/12/24 13:00:23;;;;;;;8.13;5.85;;;;;;;-3.10;76.25;100217.55;1742228;82;21082;-83
2021/12/24 13:05:45;;;;;;;8.55;6.28;;;;;;;-3.05;76.56;100211.93;1741714;82;20968;-80